Time;durP1;ratioP1;P1;durP2;ratioP2;P2;SDS_P1;SDS_P2;PMS_P1;PMS_P2;Temp;Humidity;BMP_temperature;BMP_pressure;BME280_temperature;BME280_humidity;BME280_pressure;Samples;Min_cycle;Max_cycle;Signal;HPM_P1;HPM_P2
2023/03/06 00:00:52;;;;;;;;;;;;;;;2.89;75.82;94656.47;5034716;28;1035;-56
2023/03/06 00:03:19;;;;;;;;;;;;;;;2.48;75.56;94661.50;5034496;28;1034;-54
2023/03/06 00:05:45;;;;;;;;;;;;;;;2.36;76.33;94662.53;5034481;28;998;-55
2023/03/06 00:08:11;;;;;;;;;;;;;;;2.59;76.83;94670.38;5034321;28;1089;-53
2023/03/06 00:10:37;;;;;;;;;;;;;;;2.66;76.36;94667.13;5034335;28;1022;-55
2023/03/06 00:13:04;;;;;;;;;;;;;;;2.80;76.26;94668.63;5034434;28;1979;-55
2023/03/06 00:15:31;;;;;;;;;;;;;;;2.87;76.80;94672.44;5034442;28;1025;-55
2023/03/06 00:17:57;;;;;;;;;;;;;;;2.80;76.34;94665.16;5016597;28;974;-56
2023/03/06 00:20:24;;;;;;;;;;;;;;;2.83;76.11;94678.13;5033994;28;1086;-56
2023/03/06 00:22:50;;;;;;;;;;;;;;;2.81;77.47;94670.31;5034231;28;1066;-56
2023/03/06 00:25:17;;;;;;;;;;;;;;;2.83;77.77;94680.75;5034169;28;1026;-56
2023/03/06 00:27:44;;;;;;;;;;;;;;;2.90;76.72;94684.53;5034108;28;1049;-56
2023/03/06 00:30:11;;;;;;;;;;;;;;;2.78;77.24;94673.19;5033842;28;1639;-56
2023/03/06 00:32:37;;;;;;;;;;;;;;;2.83;76.25;94676.31;5033962;28;1061;-55
2023/03/06 00:35:03;;;;;;;;;;;;;;;2.85;76.11;94681.47;5042671;28;1985;-55
2023/03/06 00:37:29;;;;;;;;;;;;;;;2.72;75.76;94689.53;5036102;28;1119;-56
2023/03/06 00:39:55;;;;;;;;;;;;;;;2.48;76.42;94684.44;5053611;28;1116;-56
2023/03/06 00:42:22;;;;;;;;;;;;;;;2.55;76.97;94672.44;5053390;28;1058;-56
2023/03/06 00:44:48;;;;;;;;;;;;;;;2.60;75.88;94677.31;5053023;28;1054;-56
2023/03/06 00:47:17;;;;;;;;;;;;;;;2.37;75.94;94673.91;5053357;28;1066;-56
2023/03/06 00:49:43;;;;;;;;;;;;;;;2.20;76.44;94672.59;5053528;28;1217;-56
2023/03/06 00:52:10;;;;;;;;;;;;;;;2.21;76.57;94669.84;5053731;28;1064;-56
2023/03/06 00:54:36;;;;;;;;;;;;;;;2.04;77.21;94668.56;5053413;28;2004;-56
2023/03/06 00:57:02;;;;;;;;;;;;;;;2.14;77.54;94672.16;5053629;28;1036;-56
2023/03/06 00:59:28;;;;;;;;;;;;;;;2.17;76.28;94670.22;5053652;28;1021;-56
2023/03/06 01:01:54;;;;;;;;;;;;;;;2.02;76.55;94667.00;5053502;28;1017;-56
2023/03/06 01:04:20;;;;;;;;;;;;;;;1.95;76.65;94669.28;5053300;28;1069;-56
2023/03/06 01:06:46;;;;;;;;;;;;;;;1.55;77.62;94667.94;5053311;28;1109;-56
2023/03/06 01:09:12;;;;;;;;;;;;;;;1.43;78.56;94663.63;5053473;28;1029;-56
2023/03/06 01:11:38;;;;;;;;;;;;;;;1.48;79.19;94668.53;5053399;28;917;-56
2023/03/06 01:14:04;;;;;;;;;;;;;;;1.59;79.17;94665.91;5053028;28;1914;-56
2023/03/06 01:16:30;;;;;;;;;;;;;;;1.50;78.01;94661.34;5053184;28;1025;-55
2023/03/06 01:18:56;;;;;;;;;;;;;;;1.38;78.76;94660.50;5053067;28;969;-56
2023/03/06 01:21:23;;;;;;;;;;;;;;;1.16;78.55;94669.22;5053183;28;926;-55
2023/03/06 01:23:49;;;;;;;;;;;;;;;1.05;79.78;94664.75;5053016;28;1090;-55
2023/03/06 01:26:15;;;;;;;;;;;;;;;1.18;79.58;94664.66;5053000;28;1599;-55
2023/03/06 01:28:41;;;;;;;;;;;;;;;1.31;79.71;94670.69;5053253;28;998;-55
2023/03/06 01:31:08;;;;;;;;;;;;;;;1.29;79.02;94666.47;5052737;28;1174;-55
2023/03/06 01:33:34;;;;;;;;;;;;;;;1.19;79.24;94665.50;5052693;28;1993;-54
2023/03/06 01:36:05;;;;;;;;;;;;;;;1.19;79.34;94668.97;5036369;28;1163;-55
2023/03/06 01:38:31;;;;;;;;;;;;;;;1.14;79.24;94674.59;5033048;28;1145;-55
2023/03/06 01:40:57;;;;;;;;;;;;;;;1.15;79.77;94673.63;5033298;28;970;-55
2023/03/06 01:43:26;;;;;;;;;;;;;;;1.00;79.64;94672.13;5033051;28;1035;-54
2023/03/06 01:46:11;;;;;;;;;;;;;;;1.14;79.89;94666.69;5032899;28;1042;-55
2023/03/06 01:48:37;;;;;;;;;;;;;;;1.29;80.39;94672.59;5033122;28;1025;-55
2023/03/06 01:51:03;;;;;;;;;;;;;;;1.13;78.68;94672.06;5015489;28;1010;-55
2023/03/06 01:53:30;;;;;;;;;;;;;;;1.17;79.92;94666.44;5032731;28;2025;-54
2023/03/06 01:55:56;;;;;;;;;;;;;;;0.93;80.14;94660.38;5035961;28;1129;-55
2023/03/06 01:58:22;;;;;;;;;;;;;;;0.91;79.97;94662.28;5036828;28;1097;-55
2023/03/06 02:00:48;;;;;;;;;;;;;;;1.15;80.30;94664.88;5036948;28;1041;-55
2023/03/06 02:03:21;;;;;;;;;;;;;;;1.40;79.88;94655.13;5036599;28;1043;-54
2023/03/06 02:05:47;;;;;;;;;;;;;;;1.34;80.06;94656.41;5037049;28;957;-54
2023/03/06 02:08:15;;;;;;;;;;;;;;;1.43;80.97;94663.63;5036674;28;927;-54
2023/03/06 02:10:42;;;;;;;;;;;;;;;1.45;80.50;94661.72;5036918;28;958;-54
2023/03/06 02:13:08;;;;;;;;;;;;;;;1.54;80.85;94663.63;5036531;28;1918;-54
2023/03/06 02:15:34;;;;;;;;;;;;;;;1.60;80.46;94667.59;5036846;28;1014;-54
2023/03/06 02:18:00;;;;;;;;;;;;;;;1.44;79.88;94670.59;5036660;28;997;-54
2023/03/06 02:20:43;;;;;;;;;;;;;;;1.36;81.19;94663.25;5036695;28;1054;-54
2023/03/06 02:23:24;;;;;;;;;;;;;;;1.52;80.61;94676.09;5036340;28;1038;-54
2023/03/06 02:25:51;;;;;;;;;;;;;;;1.66;81.56;94663.66;5036279;28;1042;-53
2023/03/06 02:28:19;;;;;;;;;;;;;;;1.51;79.65;94666.50;5036322;28;1561;-54
2023/03/06 02:30:46;;;;;;;;;;;;;;;1.52;80.89;94667.38;5018465;28;1119;-54
2023/03/06 02:33:13;;;;;;;;;;;;;;;1.66;79.86;94667.13;5036226;28;1911;-54
2023/03/06 02:35:39;;;;;;;;;;;;;;;1.69;80.41;94681.84;5049965;28;1143;-53
2023/03/06 02:38:09;;;;;;;;;;;;;;;1.81;80.61;94677.44;5056009;28;1043;-54
2023/03/06 02:40:35;;;;;;;;;;;;;;;1.75;79.83;94676.94;5056040;28;950;-54
2023/03/06 02:43:01;;;;;;;;;;;;;;;1.77;80.24;94676.84;5056079;28;1038;-54
2023/03/06 02:45:35;;;;;;;;;;;;;;;1.83;79.88;94667.63;5056203;28;981;-54
2023/03/06 02:48:01;;;;;;;;;;;;;;;1.99;80.46;94673.34;5055712;28;1077;-54
2023/03/06 02:50:28;;;;;;;;;;;;;;;1.90;80.04;94663.53;5056094;28;1052;-53
2023/03/06 02:52:54;;;;;;;;;;;;;;;1.54;80.58;94668.09;5055725;28;1914;-54
2023/03/06 02:55:20;;;;;;;;;;;;;;;1.70;81.14;94673.81;5055666;28;1066;-54
2023/03/06 02:57:46;;;;;;;;;;;;;;;1.72;81.05;94669.28;5038285;28;993;-54
2023/03/06 03:00:13;;;;;;;;;;;;;;;1.81;81.57;94674.81;5055871;28;1044;-54
2023/03/06 03:02:39;;;;;;;;;;;;;;;1.86;80.62;94668.22;5055470;28;1037;-54
2023/03/06 03:05:05;;;;;;;;;;;;;;;1.69;80.13;94661.63;5055640;28;1028;-54
2023/03/06 03:07:31;;;;;;;;;;;;;;;1.41;80.99;94667.34;5054365;28;1097;-53
2023/03/06 03:09:57;;;;;;;;;;;;;;;1.53;81.11;94666.38;5055373;28;1060;-54
2023/03/06 03:12:24;;;;;;;;;;;;;;;1.64;81.22;94658.50;5055387;28;1065;-54
2023/03/06 03:14:50;;;;;;;;;;;;;;;1.64;80.99;94671.66;5055493;28;1910;-54
2023/03/06 03:17:16;;;;;;;;;;;;;;;1.64;81.15;94671.66;5055339;28;1280;-53
2023/03/06 03:19:42;;;;;;;;;;;;;;;1.44;80.93;94667.94;5055585;28;1037;-54
2023/03/06 03:22:08;;;;;;;;;;;;;;;1.25;82.24;94672.91;5055443;28;1001;-54
2023/03/06 03:24:34;;;;;;;;;;;;;;;1.16;82.51;94679.75;5055408;28;957;-54
2023/03/06 03:27:00;;;;;;;;;;;;;;;1.38;81.71;94680.75;5055423;28;1064;-54
2023/03/06 03:29:26;;;;;;;;;;;;;;;1.48;81.30;94679.06;5055034;28;1070;-54
2023/03/06 03:31:52;;;;;;;;;;;;;;;1.67;81.44;94678.50;5054838;28;1235;-54
2023/03/06 03:34:19;;;;;;;;;;;;;;;1.66;80.90;94671.56;5048590;28;1906;-54
2023/03/06 03:36:45;;;;;;;;;;;;;;;1.52;80.81;94676.09;5054726;28;1030;-54
2023/03/06 03:39:11;;;;;;;;;;;;;;;1.50;81.54;94679.78;5054650;28;1049;-54
2023/03/06 03:41:37;;;;;;;;;;;;;;;1.43;81.63;94675.97;5055186;28;974;-54
2023/03/06 03:44:03;;;;;;;;;;;;;;;1.53;81.15;94690.09;5054968;28;1049;-54
2023/03/06 03:46:29;;;;;;;;;;;;;;;1.52;82.00;94681.38;5054948;28;1314;-54
2023/03/06 03:48:55;;;;;;;;;;;;;;;1.44;81.02;94696.94;5054815;28;1052;-54
2023/03/06 03:51:21;;;;;;;;;;;;;;;1.47;81.19;94698.47;5054725;28;1067;-54
2023/03/06 03:53:48;;;;;;;;;;;;;;;1.60;81.56;94693.94;5054569;28;1914;-54
2023/03/06 03:56:14;;;;;;;;;;;;;;;1.70;81.39;94694.06;5054503;28;1050;-54
2023/03/06 03:58:40;;;;;;;;;;;;;;;1.49;81.46;94691.31;5054858;28;986;-54
2023/03/06 04:01:06;;;;;;;;;;;;;;;1.29;81.58;94701.56;5054286;28;1030;-54
2023/03/06 04:03:32;;;;;;;;;;;;;;;1.31;81.35;94698.78;5054554;28;1026;-54
2023/03/06 04:05:59;;;;;;;;;;;;;;;1.38;81.25;94693.91;5054255;28;1025;-54
2023/03/06 04:08:25;;;;;;;;;;;;;;;1.23;81.52;94698.53;5054184;28;1019;-54
2023/03/06 04:10:52;;;;;;;;;;;;;;;1.23;82.48;94709.91;5054365;28;976;-54
2023/03/06 04:13:19;;;;;;;;;;;;;;;1.24;81.95;94697.59;5053982;28;1913;-54
2023/03/06 04:15:46;;;;;;;;;;;;;;;1.09;82.33;94707.47;5054340;28;951;-54
2023/03/06 04:18:15;;;;;;;;;;;;;;;1.15;83.89;94709.66;5053814;28;1058;-54
2023/03/06 04:20:42;;;;;;;;;;;;;;;1.23;82.29;94711.69;5054073;28;1030;-53
2023/03/06 04:23:08;;;;;;;;;;;;;;;1.05;83.24;94719.19;5053837;28;1054;-54
2023/03/06 04:25:34;;;;;;;;;;;;;;;1.07;84.13;94718.13;5054269;28;974;-54
2023/03/06 04:28:00;;;;;;;;;;;;;;;1.03;82.85;94707.94;5054048;28;1044;-54
2023/03/06 04:30:26;;;;;;;;;;;;;;;0.93;84.23;94724.41;5053715;28;1109;-54
2023/03/06 04:32:52;;;;;;;;;;;;;;;1.12;83.77;94721.25;5054041;28;1048;-54
2023/03/06 04:35:18;;;;;;;;;;;;;;;1.15;82.98;94721.00;5042810;28;1906;-54
2023/03/06 04:37:44;;;;;;;;;;;;;;;1.20;83.24;94723.31;5016532;28;1010;-54
2023/03/06 04:40:21;;;;;;;;;;;;;;;1.18;82.92;94717.34;5033876;28;1025;-54
2023/03/06 04:42:47;;;;;;;;;;;;;;;1.30;83.18;94734.84;5033763;28;1042;-54
2023/03/06 04:45:14;;;;;;;;;;;;;;;1.35;82.01;94722.16;5033582;28;1030;-54
2023/03/06 04:47:40;;;;;;;;;;;;;;;1.26;82.12;94720.22;5033770;28;1062;-54
2023/03/06 04:50:07;;;;;;;;;;;;;;;1.34;82.65;94725.75;5033575;28;1057;-54
2023/03/06 04:52:33;;;;;;;;;;;;;;;1.23;81.64;94730.13;5033886;28;986;-53
2023/03/06 04:54:59;;;;;;;;;;;;;;;0.82;81.86;94727.00;5033738;28;1991;-53
2023/03/06 04:57:25;;;;;;;;;;;;;;;0.90;83.18;94719.38;5033473;28;1066;-53
2023/03/06 04:59:51;;;;;;;;;;;;;;;0.99;82.85;94720.50;5033415;28;1050;-53
2023/03/06 05:02:17;;;;;;;;;;;;;;;0.90;82.04;94718.53;5033539;28;1053;-52
2023/03/06 05:04:43;;;;;;;;;;;;;;;0.83;82.12;94728.66;5033459;28;1094;-53
2023/03/06 05:07:09;;;;;;;;;;;;;;;0.92;82.66;94721.88;5033441;28;1146;-53
2023/03/06 05:09:35;;;;;;;;;;;;;;;1.01;82.29;94720.38;5033435;28;1964;-53
2023/03/06 05:12:02;;;;;;;;;;;;;;;0.90;82.08;94732.53;5033650;28;967;-53
2023/03/06 05:14:31;;;;;;;;;;;;;;;0.80;81.78;94730.66;5033048;28;1909;-53
2023/03/06 05:16:57;;;;;;;;;;;;;;;0.61;81.21;94728.53;5033364;28;1982;-53
2023/03/06 05:19:23;;;;;;;;;;;;;;;0.56;82.37;94734.97;5033194;28;1034;-53
2023/03/06 05:21:49;;;;;;;;;;;;;;;0.71;81.63;94735.66;5033519;28;1049;-53
2023/03/06 05:24:15;;;;;;;;;;;;;;;0.68;80.79;94733.25;5033470;28;994;-54
2023/03/06 05:26:41;;;;;;;;;;;;;;;0.95;80.47;94727.78;5033240;28;1972;-54
2023/03/06 05:29:07;;;;;;;;;;;;;;;1.15;79.56;94735.97;5032869;28;1038;-54
2023/03/06 05:31:33;;;;;;;;;;;;;;;1.14;79.70;94744.84;5032954;28;1083;-52
2023/03/06 05:33:59;;;;;;;;;;;;;;;1.48;79.27;94747.56;5033104;28;1993;-55
2023/03/06 05:36:25;;;;;;;;;;;;;;;1.58;77.32;94753.84;5013565;28;1029;-55
2023/03/06 05:38:51;;;;;;;;;;;;;;;1.50;78.04;94750.91;5013420;28;1034;-55
2023/03/06 05:41:17;;;;;;;;;;;;;;;1.52;78.04;94763.03;5013538;28;1052;-54
2023/03/06 05:43:43;;;;;;;;;;;;;;;1.77;77.23;94763.00;5013269;28;1066;-54
2023/03/06 05:46:09;;;;;;;;;;;;;;;1.81;76.43;94761.78;5013210;28;1078;-55
2023/03/06 05:48:36;;;;;;;;;;;;;;;1.90;76.18;94756.66;4996214;28;1150;-55
2023/03/06 05:51:03;;;;;;;;;;;;;;;2.07;75.08;94755.34;5013580;28;1053;-55
2023/03/06 05:53:29;;;;;;;;;;;;;;;2.31;74.82;94757.84;5013369;28;1989;-55
2023/03/06 05:55:56;;;;;;;;;;;;;;;3.23;70.98;94749.63;5013484;28;982;-55
2023/03/06 05:58:22;;;;;;;;;;;;;;;2.95;71.22;94758.13;5013445;28;953;-55
2023/03/06 06:00:48;;;;;;;;;;;;;;;2.54;73.76;94763.09;5013100;28;1058;-54
2023/03/06 06:03:14;;;;;;;;;;;;;;;4.19;69.04;94765.41;5013089;28;1101;-54
2023/03/06 06:05:40;;;;;;;;;;;;;;;4.14;67.54;94765.00;5013054;28;1082;-54
2023/03/06 06:08:06;;;;;;;;;;;;;;;3.97;69.26;94759.31;5013329;28;1014;-53
2023/03/06 06:10:32;;;;;;;;;;;;;;;4.59;65.60;94772.56;5013034;28;1038;-53
2023/03/06 06:12:58;;;;;;;;;;;;;;;5.57;62.50;94777.06;4995673;28;1046;-55
2023/03/06 06:15:27;;;;;;;;;;;;;;;5.21;63.85;94783.88;4995646;28;1977;-54
2023/03/06 06:17:54;;;;;;;;;;;;;;;6.33;59.75;94778.94;5012962;28;1109;-54
2023/03/06 06:20:20;;;;;;;;;;;;;;;4.69;64.76;94776.91;5013249;28;978;-54
2023/03/06 06:22:46;;;;;;;;;;;;;;;4.82;66.25;94774.03;5013009;28;1038;-54
2023/03/06 06:25:12;;;;;;;;;;;;;;;7.21;56.62;94786.53;5013026;28;1021;-55
2023/03/06 06:27:38;;;;;;;;;;;;;;;8.57;52.92;94792.53;5013155;28;1121;-55
2023/03/06 06:30:05;;;;;;;;;;;;;;;10.10;49.19;94796.00;5013011;28;1102;-56
2023/03/06 06:32:32;;;;;;;;;;;;;;;11.96;45.46;94814.53;5013132;28;1017;-56
2023/03/06 06:34:58;;;;;;;;;;;;;;;12.18;43.55;94816.38;5011187;28;1915;-56
2023/03/06 06:37:24;;;;;;;;;;;;;;;12.17;42.91;94824.59;5052674;28;922;-56
2023/03/06 06:39:51;;;;;;;;;;;;;;;12.66;41.95;94830.38;5052393;28;1042;-57
2023/03/06 06:42:17;;;;;;;;;;;;;;;11.61;42.65;94828.25;5054080;28;1025;-57
2023/03/06 06:44:43;;;;;;;;;;;;;;;10.20;45.43;94815.34;5055912;28;1061;-55
2023/03/06 06:47:09;;;;;;;;;;;;;;;8.95;49.97;94796.56;5038558;28;995;-57
2023/03/06 06:49:35;;;;;;;;;;;;;;;8.01;52.27;94791.94;5055917;28;1048;-57
2023/03/06 06:52:01;;;;;;;;;;;;;;;7.97;52.71;94793.25;5056082;28;1052;-56
2023/03/06 06:54:27;;;;;;;;;;;;;;;7.47;54.74;94785.78;5038230;28;1918;-57
2023/03/06 06:56:53;;;;;;;;;;;;;;;7.92;55.10;94788.38;5055855;28;1065;-56
2023/03/06 06:59:22;;;;;;;;;;;;;;;8.32;54.08;94771.03;5055499;28;1058;-56
2023/03/06 07:01:48;;;;;;;;;;;;;;;8.84;50.72;94794.19;5055601;28;1042;-56
2023/03/06 07:04:15;;;;;;;;;;;;;;;8.66;52.26;94790.75;5055534;28;1046;-56
2023/03/06 07:06:41;;;;;;;;;;;;;;;8.62;53.36;94795.56;5055537;28;1029;-56
2023/03/06 07:09:07;;;;;;;;;;;;;;;8.77;52.90;94793.16;5055567;28;1133;-56
2023/03/06 07:11:33;;;;;;;;;;;;;;;8.43;53.10;94790.44;5055710;28;1017;-57
2023/03/06 07:14:00;;;;;;;;;;;;;;;8.84;53.65;94785.31;5055251;28;1912;-57
2023/03/06 07:16:26;;;;;;;;;;;;;;;8.90;53.31;94792.72;5055636;28;1036;-58
2023/03/06 07:18:52;;;;;;;;;;;;;;;8.78;53.88;94794.78;5055624;28;1036;-57
2023/03/06 07:21:18;;;;;;;;;;;;;;;8.93;53.98;94792.38;5055237;28;1057;-57
2023/03/06 07:23:44;;;;;;;;;;;;;;;9.00;53.11;94790.75;5055466;28;1077;-56
2023/03/06 07:26:10;;;;;;;;;;;;;;;9.23;53.68;94798.16;5055229;28;974;-56
2023/03/06 07:28:37;;;;;;;;;;;;;;;9.80;53.43;94798.31;5055114;28;1109;-56
2023/03/06 07:31:06;;;;;;;;;;;;;;;10.06;52.31;94805.34;5055075;28;1073;-56
2023/03/06 07:33:32;;;;;;;;;;;;;;;9.83;51.09;94806.00;5055207;28;2008;-55
2023/03/06 07:35:59;;;;;;;;;;;;;;;9.84;51.28;94813.00;5038598;28;1300;-55
2023/03/06 07:38:25;;;;;;;;;;;;;;;9.93;52.18;94808.50;5035143;28;971;-55
2023/03/06 07:40:51;;;;;;;;;;;;;;;9.80;53.62;94806.31;5035062;28;974;-56
2023/03/06 07:43:18;;;;;;;;;;;;;;;9.94;51.37;94813.69;5035159;28;1061;-56
2023/03/06 07:45:45;;;;;;;;;;;;;;;9.74;51.08;94812.31;5035240;28;1211;-56
2023/03/06 07:48:12;;;;;;;;;;;;;;;9.98;51.55;94819.53;5034720;28;1035;-56
2023/03/06 07:50:38;;;;;;;;;;;;;;;10.31;51.63;94819.56;5034872;28;1046;-55
2023/03/06 07:53:05;;;;;;;;;;;;;;;10.67;50.68;94820.03;5033881;28;1926;-56
2023/03/06 07:55:30;;;;;;;;;;;;;;;10.72;49.41;94819.53;5034478;28;1005;-56
2023/03/06 07:57:56;;;;;;;;;;;;;;;10.87;48.41;94819.66;5034362;28;982;-56
2023/03/06 08:00:23;;;;;;;;;;;;;;;10.93;49.50;94818.97;5034756;28;974;-56
2023/03/06 08:02:49;;;;;;;;;;;;;;;11.60;49.20;94831.09;5034701;28;971;-56
2023/03/06 08:05:15;;;;;;;;;;;;;;;11.35;49.86;94815.16;5034297;28;930;-56
2023/03/06 08:07:43;;;;;;;;;;;;;;;11.28;47.80;94823.03;5033634;28;1054;-55
2023/03/06 08:10:12;;;;;;;;;;;;;;;11.85;46.41;94835.28;5034510;28;989;-57
2023/03/06 08:12:38;;;;;;;;;;;;;;;11.70;46.32;94832.56;5016977;28;991;-56
2023/03/06 08:15:04;;;;;;;;;;;;;;;11.93;47.44;94829.09;5034158;28;1981;-56
2023/03/06 08:17:30;;;;;;;;;;;;;;;11.99;46.65;94825.72;5034347;28;1089;-56
2023/03/06 08:19:56;;;;;;;;;;;;;;;12.29;47.76;94817.78;5034329;28;997;-55
2023/03/06 08:22:22;;;;;;;;;;;;;;;12.73;44.70;94824.25;5034254;28;982;-56
2023/03/06 08:24:48;;;;;;;;;;;;;;;12.34;46.40;94814.56;5034084;28;1057;-56
2023/03/06 08:27:14;;;;;;;;;;;;;;;12.53;46.88;94813.25;5034166;28;1002;-57
2023/03/06 08:29:40;;;;;;;;;;;;;;;12.69;45.77;94810.38;5034245;28;1050;-57
2023/03/06 08:32:09;;;;;;;;;;;;;;;12.71;45.65;94811.06;5033830;28;1279;-57
2023/03/06 08:34:37;;;;;;;;;;;;;;;13.20;44.06;94821.28;5038882;28;1910;-56
2023/03/06 08:37:03;;;;;;;;;;;;;;;13.47;45.49;94817.13;5054064;28;1009;-57
2023/03/06 08:39:29;;;;;;;;;;;;;;;13.51;45.64;94814.03;5053776;28;918;-57
2023/03/06 08:41:55;;;;;;;;;;;;;;;13.35;43.65;94809.72;5053671;28;1066;-57
2023/03/06 08:44:21;;;;;;;;;;;;;;;13.24;44.72;94809.16;5053555;28;985;-56
2023/03/06 08:46:47;;;;;;;;;;;;;;;13.40;45.54;94797.41;5053927;28;1040;-57
2023/03/06 08:49:13;;;;;;;;;;;;;;;13.03;44.53;94790.25;5053740;28;1061;-55
2023/03/06 08:51:40;;;;;;;;;;;;;;;13.29;43.35;94795.97;5053887;28;993;-55
2023/03/06 08:54:06;;;;;;;;;;;;;;;13.55;47.13;94793.88;5053763;28;1985;-56
2023/03/06 08:56:33;;;;;;;;;;;;;;;14.03;44.58;94791.50;5053284;28;1125;-57
2023/03/06 08:59:00;;;;;;;;;;;;;;;13.83;44.44;94784.06;5053427;28;1038;-57
2023/03/06 09:01:27;;;;;;;;;;;;;;;13.63;44.72;94788.38;5053600;28;1045;-57
2023/03/06 09:03:55;;;;;;;;;;;;;;;13.61;43.97;94785.88;5052942;28;1041;-55
2023/03/06 09:06:21;;;;;;;;;;;;;;;14.01;45.37;94777.41;5053288;28;1017;-57
2023/03/06 09:08:49;;;;;;;;;;;;;;;14.24;45.54;94786.13;5053573;28;997;-57
2023/03/06 09:11:15;;;;;;;;;;;;;;;13.94;44.74;94784.56;5053379;28;997;-57
2023/03/06 09:13:42;;;;;;;;;;;;;;;13.72;44.08;94779.19;5052961;28;1902;-57
2023/03/06 09:16:08;;;;;;;;;;;;;;;14.03;45.67;94776.19;5053457;28;993;-56
2023/03/06 09:18:35;;;;;;;;;;;;;;;14.05;44.59;94774.16;5053088;28;1102;-57
2023/03/06 09:21:01;;;;;;;;;;;;;;;14.43;45.19;94776.56;5053181;28;1058;-56
2023/03/06 09:23:27;;;;;;;;;;;;;;;14.95;44.65;94773.66;5052993;28;1034;-57
2023/03/06 09:25:54;;;;;;;;;;;;;;;15.04;43.59;94775.16;5053033;28;1046;-56
2023/03/06 09:28:20;;;;;;;;;;;;;;;15.15;44.38;94771.09;5053090;28;1049;-56
2023/03/06 09:34:26;;;;;;;;;;;;;;;14.84;42.41;94772.38;5049167;28;1910;-56
2023/03/06 09:36:52;;;;;;;;;;;;;;;14.68;43.48;94759.19;5033005;28;1102;-56
2023/03/06 09:39:18;;;;;;;;;;;;;;;14.75;42.40;94762.78;5032903;28;1278;-56
2023/03/06 09:41:46;;;;;;;;;;;;;;;15.21;41.41;94764.91;5033224;28;1061;-55
2023/03/06 09:44:14;;;;;;;;;;;;;;;15.99;42.69;94760.06;5032979;28;950;-55
2023/03/06 09:46:46;;;;;;;;;;;;;;;15.91;42.21;94754.84;5032959;28;1117;-56
2023/03/06 09:49:12;;;;;;;;;;;;;;;16.12;41.66;94761.94;5033105;28;1058;-55
2023/03/06 09:51:43;;;;;;;;;;;;;;;16.12;41.20;94758.41;5033504;28;1070;-55
2023/03/06 09:54:14;;;;;;;;;;;;;;;15.69;41.45;94766.78;5033093;28;1977;-55
2023/03/06 09:56:44;;;;;;;;;;;;;;;15.19;40.83;94766.97;5032897;28;1030;-55
2023/03/06 09:59:12;;;;;;;;;;;;;;;15.35;41.97;94760.44;5032850;28;1094;-55
2023/03/06 10:01:43;;;;;;;;;;;;;;;15.40;39.93;94758.81;5032840;28;964;-55
2023/03/06 10:04:09;;;;;;;;;;;;;;;14.44;42.05;94751.34;5032745;28;1039;-55
2023/03/06 10:06:40;;;;;;;;;;;;;;;14.68;40.77;94746.56;5032818;28;1893;-55
2023/03/06 10:09:13;;;;;;;;;;;;;;;15.26;41.06;94746.31;5033114;28;1068;-56
2023/03/06 10:11:59;;;;;;;;;;;;;;;15.01;40.09;94749.47;5032995;28;1030;-56
2023/03/06 10:14:31;;;;;;;;;;;;;;;14.59;41.88;94737.00;5014957;28;1995;-56
2023/03/06 10:16:57;;;;;;;;;;;;;;;15.40;41.68;94736.41;5036011;28;1040;-55
2023/03/06 10:19:30;;;;;;;;;;;;;;;16.05;39.17;94750.34;5036702;28;1100;-55
2023/03/06 10:22:03;;;;;;;;;;;;;;;16.57;40.26;94746.00;5036404;28;1009;-56
2023/03/06 10:24:47;;;;;;;;;;;;;;;16.96;37.72;94754.31;5036406;28;1049;-56
2023/03/06 10:27:20;;;;;;;;;;;;;;;17.25;38.85;94744.06;5036440;28;1029;-56
2023/03/06 10:29:59;;;;;;;;;;;;;;;17.06;37.77;94743.06;5036612;28;1016;-55
2023/03/06 10:32:27;;;;;;;;;;;;;;;17.01;38.13;94745.56;5036143;28;1232;-56
2023/03/06 10:34:56;;;;;;;;;;;;;;;17.11;39.44;94727.03;5043765;28;1914;-55
2023/03/06 10:37:22;;;;;;;;;;;;;;;16.92;37.79;94728.75;5055862;28;1024;-55
2023/03/06 10:39:55;;;;;;;;;;;;;;;16.64;39.56;94724.41;5056238;28;1045;-55
2023/03/06 10:42:22;;;;;;;;;;;;;;;16.92;38.59;94720.66;5056146;28;974;-55
2023/03/06 10:45:02;;;;;;;;;;;;;;;17.14;39.73;94715.81;5055910;28;1117;-56
2023/03/06 10:47:33;;;;;;;;;;;;;;;17.37;40.11;94716.16;5055895;28;980;-55
2023/03/06 10:50:00;;;;;;;;;;;;;;;17.84;38.50;94717.81;5055843;28;1117;-55
2023/03/06 10:52:35;;;;;;;;;;;;;;;17.65;33.89;94725.81;5055904;28;1022;-55
2023/03/06 10:55:20;;;;;;;;;;;;;;;16.91;34.56;94717.13;5055885;28;1906;-54
2023/03/06 10:57:46;;;;;;;;;;;;;;;17.21;37.69;94700.44;5056037;28;1344;-55
2023/03/06 11:00:28;;;;;;;;;;;;;;;17.28;34.91;94705.78;5055755;28;1038;-54
2023/03/06 11:03:13;;;;;;;;;;;;;;;16.71;38.14;94678.50;5055728;28;1292;-54
2023/03/06 11:05:39;;;;;;;;;;;;;;;16.34;37.14;94681.66;5055846;28;1017;-55
2023/03/06 11:08:18;;;;;;;;;;;;;;;16.52;37.85;94675.66;5055779;28;1021;-55
2023/03/06 11:10:53;;;;;;;;;;;;;;;16.85;37.77;94674.78;5055343;28;1018;-55
2023/03/06 11:13:23;;;;;;;;;;;;;;;17.29;36.75;94678.56;5055439;28;1983;-55
2023/03/06 11:15:55;;;;;;;;;;;;;;;17.17;36.50;94685.69;5055547;28;958;-55
2023/03/06 11:18:34;;;;;;;;;;;;;;;17.12;36.83;94672.00;5055304;28;1131;-55
2023/03/06 11:21:02;;;;;;;;;;;;;;;17.04;36.73;94661.44;5055223;28;1039;-55
2023/03/06 11:23:36;;;;;;;;;;;;;;;16.67;35.53;94664.59;5055155;28;1043;-55
2023/03/06 11:26:28;;;;;;;;;;;;;;;16.01;35.57;94668.16;5055313;28;1029;-55
2023/03/06 11:29:00;;;;;;;;;;;;;;;16.14;36.54;94664.66;5052429;28;1175;-55
2023/03/06 11:31:36;;;;;;;;;;;;;;;15.75;37.18;94660.91;5055305;28;1041;-55
2023/03/06 11:34:06;;;;;;;;;;;;;;;15.62;36.70;94653.59;5054490;28;1979;-55
2023/03/06 11:36:34;;;;;;;;;;;;;;;15.49;38.47;94646.28;5035299;28;990;-54
2023/03/06 11:39:02;;;;;;;;;;;;;;;15.76;38.14;94646.38;5035077;28;1066;-54
2023/03/06 11:41:41;;;;;;;;;;;;;;;15.44;38.00;94638.00;5034970;28;1363;-56
2023/03/06 11:44:23;;;;;;;;;;;;;;;15.15;38.96;94633.78;5035077;28;1049;-55
2023/03/06 11:47:01;;;;;;;;;;;;;;;14.90;39.08;94626.22;5035147;28;1025;-56
2023/03/06 11:49:42;;;;;;;;;;;;;;;14.73;38.91;94636.50;5035099;28;978;-54
2023/03/06 11:52:16;;;;;;;;;;;;;;;14.53;39.04;94627.44;5034975;28;1049;-55
2023/03/06 11:54:42;;;;;;;;;;;;;;;14.36;39.09;94618.88;5034901;28;1906;-55
2023/03/06 11:57:11;;;;;;;;;;;;;;;14.15;40.18;94633.19;5034833;28;1037;-55
2023/03/06 11:59:57;;;;;;;;;;;;;;;14.10;39.78;94625.75;5034789;28;979;-54
2023/03/06 12:02:29;;;;;;;;;;;;;;;14.13;39.70;94622.63;5034464;28;1761;-55
2023/03/06 12:05:16;;;;;;;;;;;;;;;14.18;40.27;94622.88;5034587;28;1018;-56
2023/03/06 12:08:01;;;;;;;;;;;;;;;14.26;41.78;94616.53;5034870;28;998;-56
2023/03/06 12:10:34;;;;;;;;;;;;;;;14.76;42.26;94619.09;5032061;28;1093;-56
2023/03/06 12:13:02;;;;;;;;;;;;;;;15.18;40.79;94615.34;5034452;28;982;-55
2023/03/06 12:15:40;;;;;;;;;;;;;;;15.62;39.59;94610.47;5034158;28;1902;-55
2023/03/06 12:18:25;;;;;;;;;;;;;;;15.78;39.43;94614.66;5034570;28;1327;-53
2023/03/06 12:21:11;;;;;;;;;;;;;;;15.94;39.98;94614.25;5034161;28;1528;-55
2023/03/06 12:23:43;;;;;;;;;;;;;;;16.16;39.81;94609.50;5034428;28;1065;-56
2023/03/06 12:26:24;;;;;;;;;;;;;;;16.31;39.60;94611.13;5034431;28;965;-55
2023/03/06 12:29:09;;;;;;;;;;;;;;;16.28;39.11;94606.16;5034318;28;1021;-56
2023/03/06 12:31:47;;;;;;;;;;;;;;;16.32;39.10;94607.41;5034149;28;1084;-55
2023/03/06 12:34:21;;;;;;;;;;;;;;;16.07;39.16;94593.72;5035388;28;1999;-55
2023/03/06 12:36:50;;;;;;;;;;;;;;;16.19;39.00;94600.13;5036445;28;1636;-55
2023/03/06 12:39:19;;;;;;;;;;;;;;;16.19;37.97;94603.66;5053580;28;1133;-56
2023/03/06 12:41:58;;;;;;;;;;;;;;;16.14;37.04;94600.78;5034721;28;1228;-55
2023/03/06 12:44:27;;;;;;;;;;;;;;;16.19;39.61;94592.88;5033859;28;1046;-56
2023/03/06 12:46:56;;;;;;;;;;;;;;;16.31;38.93;94589.53;5016362;28;1046;-55
2023/03/06 12:49:24;;;;;;;;;;;;;;;16.25;38.82;94593.91;5034020;28;1064;-56
2023/03/06 12:51:52;;;;;;;;;;;;;;;16.25;37.75;94588.50;5033693;28;1081;-55
2023/03/06 12:54:22;;;;;;;;;;;;;;;16.22;37.79;94590.78;5033398;28;1974;-56
2023/03/06 12:56:49;;;;;;;;;;;;;;;15.97;38.59;94578.81;5033847;28;970;-55
2023/03/06 12:59:35;;;;;;;;;;;;;;;15.95;38.33;94580.88;5033617;28;1053;-56
2023/03/06 13:02:01;;;;;;;;;;;;;;;16.07;38.87;94594.56;5033975;28;946;-56
2023/03/06 13:04:30;;;;;;;;;;;;;;;15.76;38.59;94596.03;5033520;28;994;-56
2023/03/06 13:06:58;;;;;;;;;;;;;;;15.41;38.35;94593.44;5033732;28;1045;-56
2023/03/06 13:09:43;;;;;;;;;;;;;;;15.18;38.92;94593.81;5033261;28;1125;-56
2023/03/06 13:12:18;;;;;;;;;;;;;;;14.96;39.46;94589.59;5033682;28;1061;-55
2023/03/06 13:14:44;;;;;;;;;;;;;;;15.08;39.11;94579.91;5033521;28;1910;-56